Time;durP1;ratioP1;P1;durP2;ratioP2;P2;SDS_P1;SDS_P2;PMS_P1;PMS_P2;Temp;Humidity;BMP_temperature;BMP_pressure;BME280_temperature;BME280_humidity;BME280_pressure;Samples;Min_cycle;Max_cycle;Signal;HPM_P1;HPM_P2
2023/03/13 00:01:25;;;;;;;13.88;3.55;;;8.10;99.90;;;;;;5033001;28;20045;-79
2023/03/13 00:03:51;;;;;;;14.63;3.60;;;8.00;99.90;;;;;;5033104;28;20041;-78
2023/03/13 00:06:17;;;;;;;13.45;3.35;;;8.00;99.90;;;;;;5016565;28;20060;-78
2023/03/13 00:08:43;;;;;;;17.17;3.33;;;8.10;99.90;;;;;;5033547;28;20378;-78
2023/03/13 00:11:11;;;;;;;14.50;3.55;;;8.10;99.90;;;;;;5032896;28;20056;-78
2023/03/13 00:13:37;;;;;;;14.65;4.20;;;8.00;99.90;;;;;;5032790;28;20059;-78
2023/03/13 00:16:06;;;;;;;21.50;4.30;;;8.10;99.90;;;;;;5033601;28;20089;-79
2023/03/13 00:18:32;;;;;;;20.88;4.72;;;8.10;99.90;;;;;;5034189;28;20064;-78
2023/03/13 00:20:59;;;;;;;15.82;4.03;;;8.10;99.90;;;;;;5032718;28;20041;-78
2023/03/13 00:23:25;;;;;;;19.77;3.88;;;8.10;99.90;;;;;;5016002;28;20058;-79
2023/03/13 00:25:59;;;;;;;21.30;4.43;;;8.00;99.90;;;;;;5034310;28;20124;-77
2023/03/13 00:28:27;;;;;;;20.48;4.70;;;8.00;99.90;;;;;;5033169;28;20473;-79
2023/03/13 00:31:19;;;;;;;19.95;3.75;;;7.90;99.90;;;;;;5033419;28;20092;-79
2023/03/13 00:33:47;;;;;;;19.35;4.30;;;7.90;99.90;;;;;;5032412;28;20113;-79
2023/03/13 00:36:16;;;;;;;19.80;3.67;;;7.90;99.90;;;;;;5036602;28;20057;-78
2023/03/13 00:38:42;;;;;;;21.83;4.28;;;8.20;99.90;;;;;;5039843;28;20053;-78
2023/03/13 00:41:11;;;;;;;19.35;4.70;;;8.00;99.90;;;;;;5040143;28;20041;-77
2023/03/13 00:43:38;;;;;;;19.77;4.07;;;8.00;99.90;;;;;;5035423;28;20050;-78
2023/03/13 00:46:04;;;;;;;21.38;4.10;;;7.90;99.90;;;;;;5033010;28;20450;-78
2023/03/13 00:48:30;;;;;;;17.35;4.00;;;8.00;99.90;;;;;;5016574;28;20045;-78
2023/03/13 00:50:55;;;;;;;19.15;3.60;;;7.90;99.90;;;;;;5015739;28;20402;-78
2023/03/13 00:53:22;;;;;;;18.23;4.25;;;7.90;99.90;;;;;;5032697;28;20056;-78
2023/03/13 00:55:52;;;;;;;21.83;4.55;;;7.80;99.90;;;;;;5032840;28;20458;-78
2023/03/13 00:58:18;;;;;;;17.15;3.40;;;7.90;99.90;;;;;;5033772;28;20085;-77
2023/03/13 01:00:44;;;;;;;23.98;4.15;;;7.90;99.90;;;;;;5032564;28;20050;-77
2023/03/13 01:03:10;;;;;;;20.27;3.65;;;8.00;99.90;;;;;;5033437;28;20404;-77
2023/03/13 01:05:35;;;;;;;14.30;2.75;;;7.90;99.90;;;;;;5033442;28;20136;-77
2023/03/13 01:08:01;;;;;;;18.83;3.92;;;7.90;99.90;;;;;;5031548;28;20045;-78
2023/03/13 01:10:27;;;;;;;19.45;4.22;;;7.90;99.90;;;;;;5033441;28;20398;-79
2023/03/13 01:12:53;;;;;;;18.23;4.38;;;7.90;99.90;;;;;;5015693;28;20107;-78
2023/03/13 01:15:18;;;;;;;17.77;3.47;;;7.80;99.90;;;;;;5031340;28;20111;-77
2023/03/13 01:17:45;;;;;;;22.63;4.35;;;7.80;99.90;;;;;;5032001;28;20370;-77
2023/03/13 01:20:12;;;;;;;15.95;3.58;;;7.90;99.90;;;;;;5015455;28;20049;-77
2023/03/13 01:22:37;;;;;;;16.75;3.58;;;7.90;99.90;;;;;;5032340;28;20052;-77
2023/03/13 01:25:04;;;;;;;13.20;3.53;;;7.80;99.90;;;;;;5033300;28;20042;-77
2023/03/13 01:27:30;;;;;;;18.17;3.63;;;7.70;99.90;;;;;;5032418;28;20081;-77
2023/03/13 01:29:56;;;;;;;21.20;4.10;;;7.80;99.90;;;;;;5015770;28;20096;-77
2023/03/13 01:32:21;;;;;;;16.15;3.40;;;7.80;99.90;;;;;;5015789;28;20049;-77
2023/03/13 01:34:47;;;;;;;18.02;3.75;;;7.80;99.90;;;;;;5035646;28;20114;-77
2023/03/13 01:37:13;;;;;;;16.70;4.07;;;7.80;99.90;;;;;;5036853;28;20041;-77
2023/03/13 01:39:39;;;;;;;20.90;4.05;;;7.80;99.90;;;;;;5035177;28;20401;-77
2023/03/13 01:42:05;;;;;;;15.38;3.70;;;7.70;99.90;;;;;;5036732;28;20053;-77
2023/03/13 01:44:55;;;;;;;16.08;3.55;;;7.80;99.90;;;;;;5035651;28;20132;-76
2023/03/13 01:47:21;;;;;;;17.63;4.13;;;7.70;99.90;;;;;;5035342;28;20037;-77
2023/03/13 01:49:49;;;;;;;16.70;3.60;;;7.80;99.90;;;;;;5036501;28;20085;-77
2023/03/13 01:52:14;;;;;;;19.33;4.07;;;7.80;99.90;;;;;;5035646;28;20112;-78
2023/03/13 01:54:49;;;;;;;15.32;3.10;;;7.80;99.90;;;;;;5036342;28;20053;-77
2023/03/13 01:57:27;;;;;;;16.83;3.50;;;7.70;99.90;;;;;;5035643;28;20095;-77
2023/03/13 02:00:06;;;;;;;16.45;4.18;;;7.80;99.90;;;;;;5035294;28;20072;-77
2023/03/13 02:02:34;;;;;;;18.65;3.72;;;7.80;99.90;;;;;;5036449;28;20049;-76
2023/03/13 02:05:01;;;;;;;21.38;3.97;;;8.00;99.90;;;;;;5035118;28;20041;-77
2023/03/13 02:07:36;;;;;;;16.80;3.92;;;7.80;99.90;;;;;;5035153;28;20132;-77
2023/03/13 02:10:02;;;;;;;20.02;3.85;;;7.80;99.90;;;;;;5034356;28;20052;-77
2023/03/13 02:12:35;;;;;;;14.75;3.92;;;7.80;99.90;;;;;;5036226;28;20559;-76
2023/03/13 02:15:12;;;;;;;16.35;3.50;;;7.80;99.90;;;;;;5035099;28;20141;-76
2023/03/13 02:17:40;;;;;;;18.75;4.20;;;7.80;99.90;;;;;;5035126;28;20111;-76
2023/03/13 02:20:06;;;;;;;12.18;3.58;;;7.80;99.90;;;;;;5018227;28;20046;-76
2023/03/13 02:23:06;;;;;;;15.30;3.47;;;7.80;99.90;;;;;;5034815;28;20045;-75
2023/03/13 02:25:47;;;;;;;18.13;3.45;;;7.80;99.90;;;;;;5036032;28;20440;-76
2023/03/13 02:28:18;;;;;;;13.30;3.40;;;7.80;99.90;;;;;;5035951;28;20052;-75
2023/03/13 02:30:46;;;;;;;15.15;3.20;;;7.90;99.90;;;;;;5034614;28;20064;-76
2023/03/13 02:33:13;;;;;;;18.25;3.53;;;7.80;99.90;;;;;;5034376;28;20045;-76
2023/03/13 02:35:39;;;;;;;13.93;4.10;;;7.80;99.90;;;;;;5034589;28;20056;-75
2023/03/13 02:38:09;;;;;;;11.85;3.88;;;7.80;99.90;;;;;;5035514;28;20046;-77
2023/03/13 02:40:39;;;;;;;17.90;3.95;;;7.80;99.90;;;;;;5034458;28;20049;-76
2023/03/13 02:43:14;;;;;;;20.33;3.75;;;7.80;99.90;;;;;;5034704;28;20056;-76
2023/03/13 02:45:40;;;;;;;14.85;3.03;;;8.10;99.90;;;;;;5035065;28;20504;-76
2023/03/13 02:48:05;;;;;;;16.90;4.53;;;7.90;99.90;;;;;;5034207;28;20050;-76
2023/03/13 02:50:32;;;;;;;17.67;4.15;;;7.90;99.90;;;;;;5035482;28;20045;-75
2023/03/13 02:53:03;;;;;;;17.67;3.30;;;8.00;99.90;;;;;;5017903;28;20393;-75
2023/03/13 02:55:35;;;;;;;21.55;4.60;;;8.00;99.90;;;;;;5035764;28;20057;-76
2023/03/13 02:58:01;;;;;;;14.55;3.50;;;7.90;99.90;;;;;;5034625;28;20052;-76
2023/03/13 03:00:27;;;;;;;14.95;4.22;;;7.90;99.90;;;;;;5035030;28;20481;-74
2023/03/13 03:02:53;;;;;;;13.93;3.85;;;7.90;99.90;;;;;;5035274;28;20096;-74
2023/03/13 03:05:19;;;;;;;12.60;3.47;;;7.90;99.90;;;;;;5035110;28;20045;-74
2023/03/13 03:07:44;;;;;;;17.90;3.70;;;7.90;99.90;;;;;;5035166;28;20045;-73
2023/03/13 03:10:10;;;;;;;11.05;3.03;;;8.10;99.90;;;;;;5000593;28;20371;-74
2023/03/13 03:12:36;;;;;;;12.10;3.03;;;7.90;99.90;;;;;;5034677;28;20076;-74
2023/03/13 03:15:05;;;;;;;12.77;3.03;;;7.90;99.90;;;;;;5040824;28;20076;-71
2023/03/13 03:17:32;;;;;;;11.85;3.20;;;8.00;99.90;;;;;;5021210;28;20045;-69
2023/03/13 03:19:58;;;;;;;10.95;2.83;;;8.00;99.90;;;;;;5054815;28;20067;-70
2023/03/13 03:22:23;;;;;;;11.40;3.08;;;8.10;99.90;;;;;;5054853;28;20045;-70
2023/03/13 03:24:49;;;;;;;7.78;2.45;;;8.00;99.90;;;;;;5037198;28;20052;-70
2023/03/13 03:27:15;;;;;;;8.85;2.72;;;8.20;99.90;;;;;;5054419;28;20052;-71
2023/03/13 03:29:40;;;;;;;6.82;2.33;;;8.00;99.90;;;;;;5054684;28;20048;-70
2023/03/13 03:32:06;;;;;;;6.80;2.25;;;8.00;99.90;;;;;;5054633;28;20049;-70
2023/03/13 03:34:32;;;;;;;8.05;2.58;;;8.00;99.90;;;;;;5037034;28;20056;-70
2023/03/13 03:36:58;;;;;;;9.35;2.78;;;8.10;99.90;;;;;;5021408;28;20105;-68
2023/03/13 03:39:24;;;;;;;7.45;2.35;;;8.00;99.90;;;;;;5037072;28;20134;-71
2023/03/13 03:41:49;;;;;;;8.85;2.17;;;8.10;99.90;;;;;;5036647;28;20508;-70
2023/03/13 03:44:15;;;;;;;6.55;2.15;;;8.10;99.90;;;;;;5036903;28;20045;-70
2023/03/13 03:46:41;;;;;;;5.22;2.08;;;8.20;99.90;;;;;;5054317;28;20040;-70
2023/03/13 03:49:06;;;;;;;7.18;2.10;;;8.10;99.90;;;;;;5036622;28;20080;-70
2023/03/13 03:51:32;;;;;;;7.85;2.00;;;8.20;99.90;;;;;;5054266;28;20052;-71
2023/03/13 03:53:57;;;;;;;4.75;1.75;;;8.10;99.90;;;;;;5054798;28;20485;-71
2023/03/13 03:56:23;;;;;;;7.47;1.70;;;8.20;99.90;;;;;;5053764;28;20136;-71
2023/03/13 03:58:49;;;;;;;3.83;1.42;;;8.10;99.90;;;;;;5020475;28;20049;-71
2023/03/13 04:01:15;;;;;;;6.90;2.47;;;8.20;99.90;;;;;;5020147;28;20048;-71
2023/03/13 04:03:40;;;;;;;11.88;1.95;;;8.20;99.90;;;;;;5037000;28;20529;-70
2023/03/13 04:06:06;;;;;;;4.47;1.55;;;8.20;99.90;;;;;;5054061;28;20124;-70
2023/03/13 04:08:32;;;;;;;5.15;1.60;;;8.20;99.90;;;;;;5020144;28;20083;-70
2023/03/13 04:11:00;;;;;;;4.80;1.67;;;8.20;99.90;;;;;;5036351;28;20473;-71
2023/03/13 04:13:27;;;;;;;4.82;1.75;;;8.40;99.90;;;;;;5036345;28;20037;-70
2023/03/13 04:15:52;;;;;;;3.90;1.50;;;8.30;99.90;;;;;;5035668;28;20049;-68
2023/03/13 04:18:18;;;;;;;5.55;1.75;;;8.40;99.90;;;;;;5053891;28;20056;-70
2023/03/13 04:20:44;;;;;;;5.47;1.85;;;8.40;99.90;;;;;;5036257;28;20130;-70
2023/03/13 04:23:10;;;;;;;5.43;1.75;;;8.40;99.90;;;;;;5035946;28;20396;-71
2023/03/13 04:25:35;;;;;;;3.88;2.00;;;8.40;99.90;;;;;;5036171;28;20045;-71
2023/03/13 04:28:01;;;;;;;4.00;2.10;;;8.50;99.90;;;;;;5054578;28;20488;-71
2023/03/13 04:30:27;;;;;;;4.50;2.00;;;8.60;99.90;;;;;;5036011;28;20095;-71
2023/03/13 04:32:53;;;;;;;4.90;1.83;;;8.60;99.90;;;;;;5053686;28;20476;-71
2023/03/13 04:35:18;;;;;;;5.15;2.03;;;8.60;99.90;;;;;;5035825;28;20049;-70
2023/03/13 04:37:44;;;;;;;3.22;1.45;;;8.60;99.90;;;;;;5036458;28;20059;-71
2023/03/13 04:40:12;;;;;;;4.22;1.80;;;8.60;99.90;;;;;;5036541;28;20123;-70
2023/03/13 04:42:38;;;;;;;7.20;2.40;;;8.60;99.90;;;;;;5003552;28;20052;-70
2023/03/13 04:45:04;;;;;;;6.70;2.00;;;8.60;99.90;;;;;;5036798;28;20139;-71
2023/03/13 04:47:30;;;;;;;3.90;1.30;;;8.70;99.90;;;;;;5035888;28;20041;-70
2023/03/13 04:49:56;;;;;;;3.03;1.88;;;8.70;99.90;;;;;;5053502;28;20043;-70
2023/03/13 04:52:21;;;;;;;4.85;2.00;;;8.70;99.90;;;;;;5019549;28;20049;-70
2023/03/13 04:54:49;;;;;;;5.10;2.38;;;8.80;99.90;;;;;;5053483;28;20045;-71
2023/03/13 04:57:15;;;;;;;4.38;1.67;;;8.80;99.90;;;;;;5036074;28;20053;-69
2023/03/13 04:59:41;;;;;;;4.28;1.70;;;8.90;99.90;;;;;;5036547;28;20045;-71
2023/03/13 05:02:11;;;;;;;4.45;2.03;;;8.90;99.90;;;;;;5035795;28;20419;-70
2023/03/13 05:04:36;;;;;;;3.67;2.00;;;9.00;99.90;;;;;;5036638;28;20049;-70
2023/03/13 05:07:02;;;;;;;7.32;3.17;;;9.00;99.90;;;;;;5053325;28;20128;-70
2023/03/13 05:09:28;;;;;;;5.28;2.13;;;9.10;99.90;;;;;;5038981;28;20492;-70
2023/03/13 05:11:53;;;;;;;4.70;2.70;;;9.10;99.90;;;;;;5039811;28;20063;-71
2023/03/13 05:14:19;;;;;;;5.80;2.53;;;9.20;99.90;;;;;;5039437;28;20495;-70
2023/03/13 05:16:45;;;;;;;4.35;2.53;;;9.30;99.90;;;;;;5039395;28;20053;-68
2023/03/13 05:19:10;;;;;;;5.75;2.72;;;9.20;99.90;;;;;;5057174;28;20044;-71
2023/03/13 05:21:36;;;;;;;5.57;2.60;;;9.40;99.90;;;;;;5057117;28;20048;-71
2023/03/13 05:24:02;;;;;;;5.65;2.28;;;9.40;99.90;;;;;;5039528;28;20453;-71
2023/03/13 05:26:27;;;;;;;5.05;2.40;;;9.40;99.90;;;;;;5022716;28;20045;-70
2023/03/13 05:28:53;;;;;;;7.85;3.22;;;9.50;99.90;;;;;;5039186;28;20132;-70
2023/03/13 05:31:19;;;;;;;4.65;2.58;;;9.50;99.90;;;;;;5056928;28;20053;-70
2023/03/13 05:33:44;;;;;;;6.32;3.00;;;9.50;99.90;;;;;;5056892;28;20049;-70
2023/03/13 05:36:10;;;;;;;6.40;3.33;;;9.60;99.90;;;;;;5039291;28;20045;-70
2023/03/13 05:38:36;;;;;;;6.57;3.20;;;9.70;99.90;;;;;;5057383;28;20041;-69
2023/03/13 05:41:01;;;;;;;8.80;3.85;;;9.60;99.90;;;;;;5056777;28;20124;-68
2023/03/13 05:43:27;;;;;;;6.10;3.70;;;9.70;99.90;;;;;;5057611;28;20084;-68
2023/03/13 05:45:53;;;;;;;7.38;4.00;;;9.80;99.90;;;;;;5038762;28;20045;-71
2023/03/13 05:48:18;;;;;;;7.10;3.50;;;9.80;99.90;;;;;;5056647;28;20045;-69
2023/03/13 05:50:44;;;;;;;5.68;3.60;;;9.90;99.90;;;;;;5057162;28;20045;-71
2023/03/13 05:53:10;;;;;;;7.05;3.92;;;9.90;99.90;;;;;;5039309;28;20052;-70
2023/03/13 05:55:35;;;;;;;7.78;3.95;;;9.90;99.90;;;;;;5056759;28;20052;-66
2023/03/13 05:58:01;;;;;;;7.68;4.00;;;10.00;99.90;;;;;;5022956;28;20128;-70
2023/03/13 06:00:27;;;;;;;5.53;3.58;;;10.10;99.90;;;;;;5056899;28;20095;-67
2023/03/13 06:02:53;;;;;;;6.50;3.47;;;10.20;99.90;;;;;;5022405;28;20080;-69
2023/03/13 06:05:18;;;;;;;6.22;3.90;;;10.10;99.90;;;;;;5022321;28;20468;-69
2023/03/13 06:07:44;;;;;;;5.57;3.65;;;10.20;99.90;;;;;;5022976;28;20053;-71
2023/03/13 06:10:10;;;;;;;6.75;3.42;;;9.50;99.90;;;;;;5056126;28;20041;-69
2023/03/13 06:12:36;;;;;;;5.50;3.63;;;10.30;99.90;;;;;;5056707;28;20053;-69
2023/03/13 06:15:02;;;;;;;5.20;2.90;;;10.30;99.90;;;;;;5056134;28;20053;-70
2023/03/13 06:17:28;;;;;;;4.88;2.70;;;10.40;99.90;;;;;;5056046;28;20439;-67
2023/03/13 06:19:54;;;;;;;6.30;2.78;;;10.40;99.90;;;;;;5037362;28;20044;-71
2023/03/13 06:22:20;;;;;;;4.13;1.98;;;10.40;99.90;;;;;;5022715;28;20052;-70
2023/03/13 06:24:48;;;;;;;5.05;2.30;;;10.40;99.90;;;;;;5055961;28;20044;-74
2023/03/13 06:27:14;;;;;;;6.05;2.40;;;10.50;99.90;;;;;;5055907;28;20052;-70
2023/03/13 06:29:40;;;;;;;5.80;3.65;;;10.50;99.90;;;;;;5055851;28;20132;-71
2023/03/13 06:32:06;;;;;;;7.65;3.45;;;10.50;99.90;;;;;;5055781;28;20090;-72
2023/03/13 06:34:32;;;;;;;5.47;3.50;;;10.50;99.90;;;;;;5056296;28;20059;-70
2023/03/13 06:36:59;;;;;;;5.80;3.13;;;10.50;99.90;;;;;;5038826;28;20041;-71
2023/03/13 06:39:25;;;;;;;5.95;3.13;;;10.50;99.90;;;;;;5021592;28;20052;-69
2023/03/13 06:41:50;;;;;;;6.60;3.15;;;10.50;99.90;;;;;;5037904;28;20044;-69
2023/03/13 06:44:16;;;;;;;4.88;2.80;;;10.50;99.90;;;;;;5055310;28;20566;-70
2023/03/13 06:46:42;;;;;;;5.15;2.95;;;10.50;99.90;;;;;;5038785;28;20076;-68
2023/03/13 06:49:07;;;;;;;6.28;3.65;;;10.50;99.90;;;;;;5055514;28;20067;-67
2023/03/13 06:51:33;;;;;;;7.10;3.53;;;10.50;99.90;;;;;;5037598;28;20111;-72
2023/03/13 06:54:01;;;;;;;5.93;2.85;;;10.60;99.90;;;;;;5055455;28;20049;-73
2023/03/13 06:56:27;;;;;;;6.68;3.60;;;10.60;99.90;;;;;;5055340;28;20103;-71
2023/03/13 06:58:53;;;;;;;4.22;2.53;;;10.60;99.90;;;;;;5055253;28;20052;-73
2023/03/13 07:01:19;;;;;;;6.32;2.42;;;10.60;99.90;;;;;;5055142;28;20443;-72
2023/03/13 07:03:47;;;;;;;9.18;3.05;;;10.60;99.90;;;;;;5055202;28;20132;-68
2023/03/13 07:06:13;;;;;;;5.88;2.55;;;10.70;99.90;;;;;;5037912;28;20136;-70
2023/03/13 07:08:38;;;;;;;9.02;3.63;;;10.70;99.90;;;;;;5054876;28;20127;-74
2023/03/13 07:11:07;;;;;;;7.40;2.75;;;10.70;99.90;;;;;;5021223;28;20060;-69
2023/03/13 07:13:34;;;;;;;8.55;3.65;;;10.70;99.90;;;;;;5037042;28;20052;-70
2023/03/13 07:16:05;;;;;;;9.07;3.30;;;10.70;99.90;;;;;;5054983;28;20061;-71
2023/03/13 07:18:32;;;;;;;10.65;3.83;;;10.70;99.90;;;;;;5054843;28;20044;-72
2023/03/13 07:20:59;;;;;;;5.78;3.05;;;10.80;99.90;;;;;;5037061;28;20049;-67
2023/03/13 07:23:26;;;;;;;9.27;3.72;;;10.80;99.90;;;;;;5055072;28;20045;-70
2023/03/13 07:26:17;;;;;;;6.90;3.30;;;10.80;99.90;;;;;;5054843;28;20052;-69
2023/03/13 07:28:42;;;;;;;8.55;3.38;;;10.80;99.90;;;;;;5055602;28;20068;-70
2023/03/13 07:31:16;;;;;;;9.65;3.50;;;10.80;99.90;;;;;;5054608;28;20045;-70
2023/03/13 07:33:43;;;;;;;9.07;3.42;;;10.80;99.90;;;;;;5054610;28;20045;-69
2023/03/13 07:36:11;;;;;;;8.60;4.18;;;10.80;99.90;;;;;;5054596;28;20044;-72
2023/03/13 07:38:36;;;;;;;9.98;3.10;;;10.80;99.90;;;;;;5020256;28;20037;-69
2023/03/13 07:41:02;;;;;;;7.22;3.22;;;10.80;99.90;;;;;;5054311;28;20381;-70
2023/03/13 07:43:30;;;;;;;7.70;3.00;;;10.90;99.90;;;;;;5036723;28;20397;-71
2023/03/13 07:45:57;;;;;;;6.70;3.13;;;10.90;99.90;;;;;;5054301;28;20492;-73
2023/03/13 07:48:26;;;;;;;8.48;3.13;;;10.90;99.90;;;;;;5039777;28;20056;-72
2023/03/13 07:50:54;;;;;;;8.40;2.83;;;10.90;99.90;;;;;;5056725;28;20052;-72
2023/03/13 07:53:20;;;;;;;8.73;3.25;;;10.90;99.90;;;;;;5055092;28;20392;-71
2023/03/13 07:56:10;;;;;;;7.75;3.10;;;10.80;99.90;;;;;;5054246;28;20048;-72
2023/03/13 07:58:38;;;;;;;7.95;2.85;;;10.90;99.90;;;;;;5054205;28;20048;-74
2023/03/13 08:01:18;;;;;;;6.82;2.85;;;10.90;99.90;;;;;;5036301;28;20049;-74
2023/03/13 08:03:45;;;;;;;5.60;2.78;;;10.90;99.90;;;;;;5054188;28;20049;-67
2023/03/13 08:06:16;;;;;;;6.30;3.13;;;10.90;99.90;;;;;;5054671;28;20163;-72
2023/03/13 08:08:42;;;;;;;5.70;3.00;;;11.00;99.90;;;;;;5037243;28;20060;-73
2023/03/13 08:11:13;;;;;;;4.88;2.33;;;11.00;99.90;;;;;;5036459;28;20461;-71
2023/03/13 08:13:40;;;;;;;3.95;2.47;;;11.00;99.90;;;;;;5054815;28;20107;-70
2023/03/13 08:16:10;;;;;;;8.20;2.60;;;11.00;99.90;;;;;;5053467;28;20057;-70
2023/03/13 08:18:37;;;;;;;5.75;2.30;;;10.90;99.90;;;;;;5041123;28;20045;-72
2023/03/13 08:21:06;;;;;;;6.22;2.25;;;10.90;99.90;;;;;;5036603;28;20049;-73
2023/03/13 08:23:32;;;;;;;5.25;2.00;;;10.90;99.90;;;;;;5053828;28;20072;-69
2023/03/13 08:26:11;;;;;;;6.82;1.92;;;11.00;99.90;;;;;;5036210;28;20110;-71
2023/03/13 08:28:38;;;;;;;3.17;1.80;;;11.00;99.90;;;;;;5053830;28;20135;-70
2023/03/13 08:31:11;;;;;;;3.45;2.13;;;10.90;99.90;;;;;;5054520;28;20037;-68
2023/03/13 08:33:39;;;;;;;6.55;1.67;;;10.90;99.90;;;;;;5054479;28;20041;-70
2023/03/13 08:36:18;;;;;;;3.95;1.40;;;11.00;99.90;;;;;;5054454;28;20132;-70
2023/03/13 08:38:45;;;;;;;3.30;1.58;;;11.00;99.90;;;;;;5035620;28;20085;-71
2023/03/13 08:41:12;;;;;;;3.55;1.00;;;11.00;99.90;;;;;;5053589;28;20488;-71
2023/03/13 08:43:38;;;;;;;2.55;1.02;;;11.00;99.90;;;;;;5036326;28;20369;-72
2023/03/13 08:46:04;;;;;;;1.38;0.88;;;11.50;99.90;;;;;;5053513;28;20052;-72
2023/03/13 08:48:29;;;;;;;2.22;0.85;;;11.10;99.90;;;;;;5053556;28;20041;-69
2023/03/13 08:51:02;;;;;;;5.43;0.90;;;11.10;99.90;;;;;;5019370;28;20110;-74
2023/03/13 08:53:29;;;;;;;2.90;0.80;;;11.20;99.90;;;;;;5053144;28;20489;-71
2023/03/13 08:55:55;;;;;;;2.38;0.70;;;11.20;99.90;;;;;;5053415;28;20091;-75
2023/03/13 08:58:20;;;;;;;1.13;0.65;;;11.20;99.90;;;;;;5053493;28;20080;-70
2023/03/13 09:00:46;;;;;;;2.00;0.70;;;11.30;99.90;;;;;;5053313;28;20353;-72
2023/03/13 09:03:12;;;;;;;1.88;0.60;;;11.40;99.90;;;;;;5036066;28;20060;-72
2023/03/13 09:05:37;;;;;;;1.58;0.60;;;11.50;99.90;;;;;;5035780;28;20499;-73
2023/03/13 09:08:03;;;;;;;1.67;0.40;;;11.60;99.90;;;;;;5053291;28;20128;-69
2023/03/13 09:10:31;;;;;;;1.02;0.50;;;11.70;99.90;;;;;;5053227;28;20040;-72
2023/03/13 09:12:57;;;;;;;2.00;0.70;;;11.70;99.90;;;;;;5035526;28;20052;-71
2023/03/13 09:15:23;;;;;;;1.73;0.60;;;11.70;99.90;;;;;;5035600;28;20041;-74
2023/03/13 09:17:48;;;;;;;2.55;0.60;;;11.80;99.90;;;;;;5035346;28;20573;-75
2023/03/13 09:20:14;;;;;;;2.25;0.80;;;11.70;99.90;;;;;;5035443;28;20053;-72
2023/03/13 09:22:40;;;;;;;3.15;0.70;;;11.80;99.90;;;;;;5035638;28;20060;-72
2023/03/13 09:25:06;;;;;;;3.10;0.70;;;11.90;99.90;;;;;;5053182;28;20048;-72
2023/03/13 09:27:32;;;;;;;2.47;0.82;;;11.90;99.90;;;;;;5036067;28;20053;-71
2023/03/13 09:29:58;;;;;;;2.90;0.80;;;11.90;99.90;;;;;;5053373;28;20048;-83
2023/03/13 09:32:24;;;;;;;2.03;0.70;;;12.00;99.90;;;;;;5034802;28;20037;-70
2023/03/13 09:34:49;;;;;;;2.92;0.80;;;11.90;99.90;;;;;;5053028;28;20044;-76
2023/03/13 09:37:15;;;;;;;3.30;0.75;;;11.90;99.90;;;;;;5036214;28;20444;-77
2023/03/13 09:39:41;;;;;;;3.78;0.93;;;11.90;99.90;;;;;;5052843;28;20051;-77
2023/03/13 09:42:15;;;;;;;3.13;0.73;;;11.90;99.90;;;;;;5053020;28;20049;-81
2023/03/13 09:44:48;;;;;;;3.08;1.10;;;11.90;99.90;;;;;;5053136;28;20048;-76
2023/03/13 09:47:37;;;;;;;2.00;0.70;;;11.90;99.90;;;;;;5053760;28;20107;-73
2023/03/13 09:50:20;;;;;;;3.38;1.00;;;11.90;99.90;;;;;;5037290;28;20049;-80
2023/03/13 09:52:52;;;;;;;1.70;1.00;;;11.80;99.90;;;;;;5053035;28;20102;-73
2023/03/13 09:55:27;;;;;;;3.50;1.10;;;11.80;99.90;;;;;;5036459;28;20036;-74
2023/03/13 09:57:55;;;;;;;3.15;0.80;;;11.80;99.90;;;;;;5039292;28;20148;-77
2023/03/13 10:00:35;;;;;;;2.40;0.90;;;11.80;99.90;;;;;;5056349;28;20041;-74
2023/03/13 10:03:27;;;;;;;2.78;1.08;;;11.80;99.90;;;;;;5056897;28;20060;-74
2023/03/13 10:05:56;;;;;;;2.97;0.90;;;11.80;99.90;;;;;;5038530;28;20048;-75
2023/03/13 10:08:24;;;;;;;2.38;0.82;;;11.90;99.90;;;;;;5056045;28;20091;-74
2023/03/13 10:11:02;;;;;;;3.80;0.90;;;11.90;99.90;;;;;;5038111;28;20049;-68
2023/03/13 10:13:48;;;;;;;8.98;1.23;;;12.00;99.90;;;;;;5056247;28;20432;-68
2023/03/13 10:16:32;;;;;;;4.50;1.08;;;12.00;99.90;;;;;;5056235;28;20103;-68
2023/03/13 10:19:01;;;;;;;6.78;1.45;;;12.10;99.90;;;;;;5038835;28;20049;-73
2023/03/13 10:21:34;;;;;;;5.20;1.08;;;12.20;99.90;;;;;;5055766;28;20116;-70
2023/03/13 10:24:10;;;;;;;3.28;1.08;;;12.30;99.90;;;;;;5055849;28;20128;-68
2023/03/13 10:26:36;;;;;;;6.25;1.65;;;12.40;99.90;;;;;;5055915;28;20071;-73
2023/03/13 10:29:21;;;;;;;4.15;1.13;;;12.50;99.90;;;;;;5055704;28;20102;-72
2023/03/13 10:32:01;;;;;;;5.78;1.30;;;12.60;99.90;;;;;;5055696;28;20045;-69
2023/03/13 10:34:43;;;;;;;4.88;1.10;;;12.80;99.90;;;;;;5022324;28;20052;-71
2023/03/13 10:37:14;;;;;;;2.90;1.35;;;12.70;99.90;;;;;;5022122;28;20045;-71
2023/03/13 10:39:39;;;;;;;7.97;1.75;;;12.90;99.90;;;;;;5056192;28;20049;-70
2023/03/13 10:42:17;;;;;;;4.80;1.00;;;12.90;99.90;;;;;;5037659;28;20041;-69
2023/03/13 10:44:44;;;;;;;7.30;1.23;;;12.90;99.90;;;;;;5055221;28;20491;-69
2023/03/13 10:47:12;;;;;;;4.50;1.27;;;13.00;99.90;;;;;;5055717;28;20099;-74
2023/03/13 10:49:48;;;;;;;5.10;1.10;;;12.90;99.90;;;;;;5055325;28;20041;-68
2023/03/13 10:52:43;;;;;;;8.13;1.33;;;13.10;99.90;;;;;;5037952;28;20045;-66
2023/03/13 10:55:15;;;;;;;5.68;1.30;;;13.10;99.90;;;;;;5055815;28;20049;-70
2023/03/13 10:57:50;;;;;;;4.78;1.40;;;13.20;99.90;;;;;;5055134;28;20044;-72
2023/03/13 11:00:42;;;;;;;3.85;1.45;;;13.10;99.90;;;;;;5055195;28;20040;-68
2023/03/13 11:03:32;;;;;;;3.97;0.88;;;13.20;99.90;;;;;;5034834;28;20153;-71
2023/03/13 11:06:00;;;;;;;7.22;1.40;;;13.10;99.90;;;;;;5054380;28;20595;-68
2023/03/13 11:08:33;;;;;;;5.78;0.90;;;13.20;99.90;;;;;;5054898;28;20047;-68
2023/03/13 11:11:00;;;;;;;6.53;1.38;;;13.20;99.90;;;;;;5055787;28;20053;-73
2023/03/13 11:13:34;;;;;;;6.53;1.70;;;13.30;99.90;;;;;;5055117;28;20099;-68
2023/03/13 11:16:08;;;;;;;6.95;1.13;;;13.20;99.90;;;;;;5037323;28;20451;-74
2023/03/13 11:18:52;;;;;;;5.93;1.10;;;13.30;99.90;;;;;;5055442;28;20140;-75
2023/03/13 11:21:55;;;;;;;7.20;1.20;;;13.30;99.90;;;;;;5055121;28;20444;-72
2023/03/13 11:24:38;;;;;;;3.88;1.17;;;13.30;99.90;;;;;;5042083;28;20076;-72
2023/03/13 11:27:34;;;;;;;6.28;1.17;;;13.30;99.90;;;;;;5054937;28;20057;-75
2023/03/13 11:30:21;;;;;;;7.10;1.10;;;13.30;99.90;;;;;;5024517;28;20056;-69
2023/03/13 11:32:54;;;;;;;4.63;0.80;;;13.40;99.90;;;;;;5038736;28;20056;-70
2023/03/13 11:36:02;;;;;;;6.47;0.90;;;13.30;99.90;;;;;;5054428;28;20059;-71
2023/03/13 11:38:41;;;;;;;8.20;1.25;;;13.40;99.90;;;;;;5043650;28;20412;-73
2023/03/13 11:41:32;;;;;;;6.20;0.90;;;13.50;99.90;;;;;;5036786;28;20044;-72
2023/03/13 11:44:00;;;;;;;7.00;1.20;;;13.70;99.90;;;;;;5054867;28;20045;-73
2023/03/13 11:46:56;;;;;;;3.90;1.25;;;13.50;99.90;;;;;;5054788;28;20049;-71
2023/03/13 11:49:47;;;;;;;6.72;1.02;;;13.60;99.90;;;;;;5039974;28;20045;-72
2023/03/13 11:52:34;;;;;;;6.85;1.05;;;13.50;99.90;;;;;;5054160;28;20053;-71
2023/03/13 11:55:02;;;;;;;3.80;1.00;;;13.60;99.90;;;;;;5036603;28;20048;-73
2023/03/13 11:57:56;;;;;;;3.47;0.90;;;13.60;99.90;;;;;;5037059;28;20480;-73
2023/03/13 12:00:36;;;;;;;5.70;1.20;;;13.70;99.90;;;;;;5022122;28;20060;-73
2023/03/13 12:03:41;;;;;;;3.28;1.00;;;13.70;99.90;;;;;;5037216;28;20517;-76
2023/03/13 12:06:16;;;;;;;3.28;0.98;;;13.70;99.90;;;;;;4972905;28;20066;-70
2023/03/13 12:08:52;;;;;;;4.68;0.82;;;13.80;99.90;;;;;;5044026;28;20064;-72
2023/03/13 12:11:25;;;;;;;3.75;0.70;;;13.90;99.90;;;;;;5053859;28;20045;-73
2023/03/13 12:14:12;;;;;;;1.80;0.57;;;14.00;99.90;;;;;;5054298;28;20068;-71
2023/03/13 12:16:59;;;;;;;1.70;0.60;;;14.20;99.90;;;;;;5054357;28;20044;-71
2023/03/13 12:19:44;;;;;;;3.17;0.70;;;14.50;99.90;;;;;;5022508;28;20045;-72
2023/03/13 12:22:18;;;;;;;3.67;0.70;;;14.60;99.90;;;;;;5054159;28;20124;-70
2023/03/13 12:24:54;;;;;;;3.97;0.70;;;14.50;99.90;;;;;;5054384;28;20083;-71
2023/03/13 12:27:19;;;;;;;3.20;0.65;;;14.50;99.90;;;;;;5053638;28;20053;-71
2023/03/13 12:30:14;;;;;;;3.42;0.77;;;14.50;99.90;;;;;;5053519;28;20045;-70
2023/03/13 12:32:44;;;;;;;3.08;0.60;;;14.40;99.90;;;;;;5053523;28;20131;-70
2023/03/13 12:35:27;;;;;;;7.88;0.90;;;14.40;99.90;;;;;;5053502;28;20049;-70
2023/03/13 12:38:12;;;;;;;;;;;14.40;99.90;;;;;;5037187;28;20349;-73
2023/03/13 12:40:44;;;;;;;7.05;0.65;;;14.60;99.90;;;;;;5035833;28;19921;-71
2023/03/13 12:43:18;;;;;;;1.75;0.60;;;14.30;99.90;;;;;;5036149;28;20059;-70
2023/03/13 12:45:57;;;;;;;3.47;0.82;;;14.30;99.90;;;;;;5035582;28;20053;-70
2023/03/13 12:48:35;;;;;;;6.15;0.70;;;14.50;99.90;;;;;;5036627;28;20041;-71
2023/03/13 12:51:10;;;;;;;4.97;0.73;;;14.50;99.90;;;;;;5035681;28;20037;-70
2023/03/13 12:53:44;;;;;;;4.25;0.80;;;14.60;99.90;;;;;;5035927;28;20072;-70
2023/03/13 12:56:15;;;;;;;4.68;0.73;;;14.50;99.90;;;;;;5053794;28;20071;-73
2023/03/13 12:58:44;;;;;;;4.00;0.70;;;14.50;99.90;;;;;;5053398;28;20069;-71
2023/03/13 13:01:32;;;;;;;3.90;0.73;;;14.40;99.90;;;;;;5035554;28;20128;-73
2023/03/13 13:04:03;;;;;;;7.53;0.95;;;14.30;99.90;;;;;;5053305;28;20346;-72